createdAt,value
2023-05-04T03:58:59.567Z,1018.01
2023-05-04T03:59:59.508Z,1017.94
2023-05-04T04:00:59.489Z,1017.96
2023-05-04T04:01:59.606Z,1017.93
2023-05-04T04:02:59.589Z,1017.91
2023-05-04T04:03:59.587Z,1017.89
2023-05-04T04:04:59.460Z,1017.90
2023-05-04T04:05:59.450Z,1017.92
2023-05-04T04:06:59.467Z,1017.88
2023-05-04T04:07:59.461Z,1017.90
2023-05-04T04:08:59.440Z,1017.90
2023-05-04T04:09:59.426Z,1017.87
2023-05-04T04:10:59.429Z,1017.87
2023-05-04T04:11:59.443Z,1017.86
2023-05-04T04:12:59.487Z,1017.82
2023-05-04T04:13:59.413Z,1017.84
2023-05-04T04:14:59.597Z,1017.81
2023-05-04T04:15:59.468Z,1017.82
2023-05-04T04:16:59.420Z,1017.85
2023-05-04T04:17:59.451Z,1017.85
2023-05-04T04:18:59.390Z,1017.84
2023-05-04T04:19:59.385Z,1017.85
2023-05-04T04:20:59.379Z,1017.85
2023-05-04T04:21:59.403Z,1017.88
2023-05-04T04:22:59.416Z,1017.82
2023-05-04T04:23:59.377Z,1017.84
2023-05-04T04:24:59.381Z,1017.86
2023-05-04T04:25:59.371Z,1017.88
2023-05-04T04:26:59.380Z,1017.86
2023-05-04T04:27:59.419Z,1017.87
2023-05-04T04:28:59.373Z,1017.90
2023-05-04T04:29:59.347Z,1017.88
2023-05-04T04:30:59.413Z,1017.92
2023-05-04T04:31:59.424Z,1017.93
2023-05-04T04:32:59.379Z,1017.94
2023-05-04T04:33:59.340Z,1017.94
2023-05-04T04:34:59.348Z,1017.96
2023-05-04T04:35:59.333Z,1017.95
2023-05-04T04:36:59.375Z,1017.95
2023-05-04T04:38:00.205Z,1017.97
2023-05-04T04:38:59.355Z,1017.98
2023-05-04T04:39:59.313Z,1017.98
2023-05-04T04:40:59.325Z,1018.02
2023-05-04T04:41:59.318Z,1018.02
2023-05-04T04:42:59.310Z,1017.99
2023-05-04T04:43:59.307Z,1018.00
2023-05-04T04:44:59.327Z,1018.00
2023-05-04T04:45:59.288Z,1017.98
2023-05-04T04:46:59.421Z,1017.99
2023-05-04T04:47:59.340Z,1018.00
2023-05-04T04:48:59.300Z,1017.98
2023-05-04T04:49:59.293Z,1017.98
2023-05-04T04:50:59.289Z,1017.98
2023-05-04T04:51:59.292Z,1017.98
2023-05-04T04:52:59.260Z,1017.95
2023-05-04T04:53:59.422Z,1017.95
2023-05-04T04:54:59.265Z,1017.94
2023-05-04T04:55:59.260Z,1017.93
2023-05-04T04:56:59.250Z,1017.92
2023-05-04T04:57:59.374Z,1017.90
2023-05-04T04:58:59.245Z,1017.91
2023-05-04T04:59:59.258Z,1017.89
2023-05-04T05:00:59.298Z,1017.90
2023-05-04T05:01:59.240Z,1017.94
2023-05-04T05:02:59.295Z,1017.94
2023-05-04T05:03:59.228Z,1017.95
2023-05-04T05:04:59.291Z,1017.95
2023-05-04T05:05:59.222Z,1017.93
2023-05-04T05:06:59.224Z,1017.92
2023-05-04T05:07:59.240Z,1017.91
2023-05-04T05:08:59.207Z,1017.94
2023-05-04T05:09:59.232Z,1017.96
2023-05-04T05:10:59.204Z,1017.93
2023-05-04T05:11:59.217Z,1017.91
2023-05-04T05:12:59.230Z,1017.91
2023-05-04T05:13:59.203Z,1017.94
2023-05-04T05:14:59.234Z,1017.97
2023-05-04T05:15:59.209Z,1017.97
2023-05-04T05:16:59.288Z,1017.94
2023-05-04T05:17:59.292Z,1017.98
2023-05-04T05:18:59.198Z,1017.95
2023-05-04T05:19:59.176Z,1017.97
2023-05-04T05:20:59.171Z,1017.92
2023-05-04T05:21:59.182Z,1017.95
2023-05-04T05:22:59.200Z,1017.94
2023-05-04T05:23:59.156Z,1017.96
2023-05-04T05:24:59.183Z,1017.94
2023-05-04T05:26:00.848Z,1017.94
2023-05-04T05:26:59.171Z,1017.94
2023-05-04T05:27:59.153Z,1017.93
2023-05-04T05:28:59.175Z,1017.91
2023-05-04T05:29:59.140Z,1017.91
2023-05-04T05:30:59.255Z,1017.87
2023-05-04T05:31:59.173Z,1017.91
2023-05-04T05:32:59.203Z,1017.89
2023-05-04T05:33:59.154Z,1017.88
2023-05-04T05:34:59.183Z,1017.86
2023-05-04T05:35:59.139Z,1017.83
2023-05-04T05:36:59.174Z,1017.82
2023-05-04T05:37:59.123Z,1017.84
2023-05-04T05:38:59.127Z,1017.86
2023-05-04T05:39:59.141Z,1017.82
2023-05-04T05:40:59.111Z,1017.84
2023-05-04T05:41:59.128Z,1017.84
2023-05-04T05:42:59.120Z,1017.84
2023-05-04T05:43:59.117Z,1017.87
2023-05-04T05:44:59.091Z,1017.86
2023-05-04T05:45:59.191Z,1017.83
2023-05-04T05:46:59.187Z,1017.82
2023-05-04T05:47:59.157Z,1017.82
2023-05-04T05:48:59.156Z,1017.79
2023-05-04T05:49:59.095Z,1017.81
2023-05-04T05:50:59.133Z,1017.77
2023-05-04T05:51:59.170Z,1017.74
2023-05-04T05:52:59.091Z,1017.76
2023-05-04T05:53:59.078Z,1017.74
2023-05-04T05:55:01.663Z,1017.72
2023-05-04T05:55:59.102Z,1017.73
2023-05-04T05:56:59.360Z,1017.69
2023-05-04T05:57:59.221Z,1017.76
2023-05-04T05:58:59.075Z,1017.73
2023-05-04T06:00:00.676Z,1017.75
2023-05-04T06:00:59.057Z,1017.77
2023-05-04T06:01:59.087Z,1017.78
2023-05-04T06:02:59.298Z,1017.77
2023-05-04T06:03:59.337Z,1017.77
2023-05-04T06:04:59.217Z,1017.80
2023-05-04T06:05:59.079Z,1017.79
2023-05-04T06:06:59.055Z,1017.82
2023-05-04T06:07:59.061Z,1017.83
2023-05-04T06:08:59.189Z,1017.87
2023-05-04T06:09:59.054Z,1017.79
2023-05-04T06:10:59.031Z,1017.82
2023-05-04T06:11:59.048Z,1017.82
2023-05-04T06:12:59.125Z,1017.76
2023-05-04T06:13:59.025Z,1017.78
2023-05-04T06:14:59.116Z,1017.75
2023-05-04T06:15:59.056Z,1017.72
2023-05-04T06:16:59.051Z,1017.68
2023-05-04T06:17:59.049Z,1017.70
2023-05-04T06:18:58.987Z,1017.71
2023-05-04T06:19:59.100Z,1017.69
2023-05-04T06:20:59.001Z,1017.69
2023-05-04T06:21:59.018Z,1017.67
2023-05-04T06:22:58.997Z,1017.65
2023-05-04T06:23:59.014Z,1017.63
2023-05-04T06:25:03.686Z,1017.60
2023-05-04T06:25:59.005Z,1017.65
2023-05-04T06:26:59.043Z,1017.64
2023-05-04T06:27:59.025Z,1017.61
2023-05-04T06:28:59.022Z,1017.61
2023-05-04T06:29:58.977Z,1017.63
2023-05-04T06:30:59.016Z,1017.64
2023-05-04T06:31:59.015Z,1017.66
2023-05-04T06:32:59.011Z,1017.61
2023-05-04T06:33:58.980Z,1017.64
2023-05-04T06:34:58.952Z,1017.66
2023-05-04T06:35:59.009Z,1017.68
2023-05-04T06:36:59.000Z,1017.65
2023-05-04T06:37:58.966Z,1017.63
2023-05-04T06:38:58.997Z,1017.64
2023-05-04T06:39:58.958Z,1017.62
2023-05-04T06:40:58.980Z,1017.62
2023-05-04T06:41:58.975Z,1017.58
2023-05-04T06:42:59.045Z,1017.59
2023-05-04T06:43:59.067Z,1017.60
2023-05-04T06:44:59.023Z,1017.59
2023-05-04T06:45:58.964Z,1017.57
2023-05-04T06:46:58.965Z,1017.58
2023-05-04T06:47:58.962Z,1017.59
2023-05-04T06:48:59.020Z,1017.57
2023-05-04T06:49:58.920Z,1017.53
2023-05-04T06:51:00.783Z,1017.57
2023-05-04T06:51:58.951Z,1017.55
2023-05-04T06:52:58.936Z,1017.55
2023-05-04T06:53:58.903Z,1017.55
2023-05-04T06:54:59.134Z,1017.58
2023-05-04T06:55:58.965Z,1017.57
2023-05-04T06:56:58.917Z,1017.59
2023-05-04T06:57:59.024Z,1017.58
2023-05-04T06:58:58.933Z,1017.56
2023-05-04T06:59:58.899Z,1017.56
2023-05-04T07:00:58.943Z,1017.53
2023-05-04T07:01:58.895Z,1017.54
2023-05-04T07:02:58.937Z,1017.54
2023-05-04T07:03:58.934Z,1017.50
2023-05-04T07:04:58.933Z,1017.51
2023-05-04T07:05:58.921Z,1017.49
2023-05-04T07:06:58.938Z,1017.48
2023-05-04T07:07:58.967Z,1017.49
2023-05-04T07:08:58.884Z,1017.45
2023-05-04T07:09:59.023Z,1017.45
2023-05-04T07:12:31.519Z,1017.43
2023-05-04T07:13:31.451Z,1017.42
2023-05-04T07:14:31.460Z,1017.41
2023-05-04T07:15:31.462Z,1017.43
2023-05-04T07:16:31.509Z,1017.45
2023-05-04T07:17:31.525Z,1017.47
2023-05-04T07:18:31.450Z,1017.42
2023-05-04T07:19:31.488Z,1017.48
2023-05-04T07:20:31.476Z,1017.46
2023-05-04T07:21:31.436Z,1017.44
2023-05-04T07:22:31.445Z,1017.43
2023-05-04T07:23:31.473Z,1017.45
2023-05-04T07:24:31.456Z,1017.45
2023-05-04T07:25:31.433Z,1017.42
2023-05-04T07:26:31.467Z,1017.45
2023-05-04T07:27:31.420Z,1017.44
2023-05-04T07:28:31.450Z,1017.46
2023-05-04T07:29:31.428Z,1017.47
2023-05-04T07:30:31.540Z,1017.46
2023-05-04T07:31:31.647Z,1017.44
2023-05-04T07:32:31.453Z,1017.45
2023-05-04T07:33:31.427Z,1017.45
2023-05-04T07:34:44.526Z,1017.43
2023-05-04T07:35:31.823Z,1017.39
2023-05-04T07:36:31.475Z,1017.41
2023-05-04T07:37:31.417Z,1017.43
2023-05-04T07:38:31.418Z,1017.42
2023-05-04T07:39:31.449Z,1017.36
2023-05-04T07:40:31.510Z,1017.41
2023-05-04T07:41:31.492Z,1017.40
2023-05-04T07:42:32.263Z,1017.38
2023-05-04T07:43:31.490Z,1017.39
2023-05-04T07:44:31.450Z,1017.39
2023-05-04T07:45:31.404Z,1017.40
2023-05-04T07:46:32.218Z,1017.38
2023-05-04T07:47:31.448Z,1017.38
2023-05-04T07:48:31.483Z,1017.40
2023-05-04T07:49:31.434Z,1017.43
2023-05-04T07:50:31.629Z,1017.40
2023-05-04T07:51:31.391Z,1017.42
2023-05-04T07:52:31.478Z,1017.41
2023-05-04T07:53:31.477Z,1017.42
2023-05-04T07:54:31.395Z,1017.41
2023-05-04T07:55:31.384Z,1017.36
2023-05-04T07:56:31.703Z,1017.35
2023-05-04T07:57:31.411Z,1017.38
2023-05-04T07:58:31.417Z,1017.34
2023-05-04T07:59:31.398Z,1017.33
2023-05-04T08:00:31.752Z,1017.32
2023-05-04T08:01:31.457Z,1017.29
2023-05-04T08:02:31.500Z,1017.28
2023-05-04T08:03:31.399Z,1017.25
2023-05-04T08:04:31.368Z,1017.28
2023-05-04T08:05:31.370Z,1017.23
2023-05-04T08:06:31.370Z,1017.23
2023-05-04T08:07:31.451Z,1017.23
2023-05-04T08:08:31.398Z,1017.21
2023-05-04T08:09:31.381Z,1017.21
2023-05-04T08:10:31.465Z,1017.17
2023-05-04T08:11:31.427Z,1017.18
2023-05-04T08:12:31.617Z,1017.19
2023-05-04T08:13:31.419Z,1017.16
2023-05-04T08:14:31.547Z,1017.13
2023-05-04T08:15:31.464Z,1017.13
2023-05-04T08:16:31.654Z,1017.15
2023-05-04T08:17:31.413Z,1017.15
2023-05-04T08:18:31.450Z,1017.13
2023-05-04T08:19:31.499Z,1017.11
2023-05-04T08:20:31.455Z,1017.15
2023-05-04T08:21:31.360Z,1017.12
2023-05-04T08:22:31.359Z,1017.13
2023-05-04T08:23:31.383Z,1017.10
2023-05-04T08:24:31.413Z,1017.06
2023-05-04T08:25:31.450Z,1017.06
2023-05-04T08:26:31.397Z,1017.04
2023-05-04T08:27:31.385Z,1017.02
2023-05-04T08:28:31.377Z,1016.93
2023-05-04T08:29:31.392Z,1016.91
2023-05-04T08:30:31.388Z,1016.87
2023-05-04T08:31:31.360Z,1016.86
2023-05-04T08:32:33.253Z,1016.82
2023-05-04T08:33:31.428Z,1016.86
2023-05-04T08:34:31.372Z,1016.82
2023-05-04T08:35:31.563Z,1016.83
2023-05-04T08:36:31.391Z,1016.81
2023-05-04T08:37:31.371Z,1016.79
2023-05-04T08:38:31.444Z,1016.79
2023-05-04T08:39:31.361Z,1016.78
2023-05-04T08:40:32.284Z,1016.83
2023-05-04T08:41:31.509Z,1016.82
2023-05-04T08:42:31.352Z,1016.84
2023-05-04T08:43:31.356Z,1016.83
2023-05-04T08:44:31.450Z,1016.81
2023-05-04T08:45:31.584Z,1016.78
2023-05-04T08:46:32.139Z,1016.82
2023-05-04T08:47:31.384Z,1016.81
2023-05-04T08:48:31.394Z,1016.81
2023-05-04T08:49:31.379Z,1016.84
2023-05-04T08:50:31.350Z,1016.85
2023-05-04T08:51:31.361Z,1016.81
2023-05-04T08:52:31.353Z,1016.81
2023-05-04T08:53:31.378Z,1016.83
2023-05-04T08:54:31.343Z,1016.83
2023-05-04T08:55:31.369Z,1016.87
2023-05-04T08:56:31.358Z,1016.88
2023-05-04T08:57:31.369Z,1016.84
2023-05-04T08:58:31.398Z,1016.82
2023-05-04T08:59:31.359Z,1016.80
2023-05-04T09:00:31.400Z,1016.86
2023-05-04T09:01:31.478Z,1016.86
2023-05-04T09:02:31.410Z,1016.79
2023-05-04T09:03:31.513Z,1016.78
2023-05-04T09:04:31.408Z,1016.78
2023-05-04T09:05:31.336Z,1016.77
2023-05-04T09:06:31.335Z,1016.83
2023-05-04T09:07:31.338Z,1016.74
2023-05-04T09:08:31.361Z,1016.74
2023-05-04T09:09:31.343Z,1016.72
2023-05-04T09:10:31.325Z,1016.75
2023-05-04T09:11:31.363Z,1016.76
2023-05-04T09:12:31.457Z,1016.79
2023-05-04T09:13:31.312Z,1016.74
2023-05-04T09:14:31.312Z,1016.73
2023-05-04T09:15:31.323Z,1016.77
2023-05-04T09:16:31.343Z,1016.73
2023-05-04T09:17:31.474Z,1016.71
2023-05-04T09:18:31.372Z,1016.66
2023-05-04T09:19:31.347Z,1016.67
2023-05-04T09:20:31.380Z,1016.70
2023-05-04T09:21:31.365Z,1016.68
2023-05-04T09:22:31.546Z,1016.68
2023-05-04T09:23:31.386Z,1016.67
2023-05-04T09:24:31.334Z,1016.64
2023-05-04T09:25:31.401Z,1016.60
2023-05-04T09:26:31.417Z,1016.63
2023-05-04T09:27:31.408Z,1016.61
2023-05-04T09:28:33.194Z,1016.57
2023-05-04T09:29:32.214Z,1016.58
2023-05-04T09:30:31.407Z,1016.54
2023-05-04T09:31:31.361Z,1016.60
2023-05-04T09:32:31.461Z,1016.63
2023-05-04T09:33:31.333Z,1016.64
2023-05-04T09:34:31.530Z,1016.59
2023-05-04T09:35:33.838Z,1016.63
2023-05-04T09:36:31.380Z,1016.62
2023-05-04T09:37:31.460Z,1016.62
2023-05-04T09:40:04.018Z,1016.56
2023-05-04T09:41:04.010Z,1016.58
2023-05-04T09:42:32.651Z,1016.56
2023-05-04T09:43:03.878Z,1016.59
2023-05-04T09:44:03.891Z,1016.62
2023-05-04T09:45:05.145Z,1016.63
2023-05-04T09:46:03.992Z,1016.64
2023-05-04T09:47:04.390Z,1016.54
2023-05-04T09:48:04.150Z,1016.58
2023-05-04T09:49:03.935Z,1016.54
2023-05-04T09:50:04.089Z,1016.57
2023-05-04T09:51:03.866Z,1016.53
2023-05-04T09:52:03.886Z,1016.47
2023-05-04T09:53:03.854Z,1016.46
2023-05-04T09:54:03.886Z,1016.46
2023-05-04T09:55:04.046Z,1016.44
2023-05-04T09:56:05.770Z,1016.44
2023-05-04T09:57:03.936Z,1016.40
2023-05-04T09:58:03.902Z,1016.39
2023-05-04T09:59:03.871Z,1016.34
2023-05-04T10:00:03.877Z,1016.37
2023-05-04T10:01:03.958Z,1016.37
2023-05-04T10:02:14.487Z,1016.36
2023-05-04T10:13:26.713Z,1016.26
2023-05-04T10:14:26.553Z,1016.23
2023-05-04T10:15:26.566Z,1016.25
2023-05-04T10:16:26.595Z,1016.23
2023-05-04T10:17:26.616Z,1016.27
2023-05-04T10:18:26.556Z,1016.27
2023-05-04T10:19:26.565Z,1016.26
2023-05-04T10:20:26.585Z,1016.24
2023-05-04T10:21:26.542Z,1016.21
2023-05-04T10:22:26.653Z,1016.21
2023-05-04T10:23:26.571Z,1016.17
2023-05-04T10:24:26.565Z,1016.17
2023-05-04T10:25:26.614Z,1016.19
2023-05-04T10:26:26.569Z,1016.16
2023-05-04T10:27:26.665Z,1016.16
2023-05-04T10:28:26.573Z,1016.14
2023-05-04T10:29:26.567Z,1016.13
2023-05-04T10:30:26.572Z,1016.08
2023-05-04T10:31:26.608Z,1016.06
2023-05-04T10:32:26.711Z,1016.07
2023-05-04T10:33:26.560Z,1016.07
2023-05-04T10:34:26.611Z,1016.03
2023-05-04T10:35:26.605Z,1016.08
2023-05-04T10:36:26.618Z,1016.07
2023-05-04T10:37:26.753Z,1016.02
2023-05-04T10:38:26.550Z,1015.97
2023-05-04T10:39:26.572Z,1015.97
2023-05-04T10:40:26.593Z,1015.96
2023-05-04T10:41:26.609Z,1015.96
2023-05-04T10:42:26.657Z,1015.95
2023-05-04T10:43:26.834Z,1015.89
2023-05-04T10:44:26.582Z,1015.85
2023-05-04T10:45:26.654Z,1015.86
2023-05-04T10:46:26.662Z,1015.79
2023-05-04T10:47:26.623Z,1015.76
2023-05-04T10:48:26.547Z,1015.76
2023-05-04T10:49:26.630Z,1015.74
2023-05-04T10:50:26.568Z,1015.72
2023-05-04T10:51:35.565Z,1015.67
2023-05-04T10:52:26.649Z,1015.67
2023-05-04T10:53:26.643Z,1015.65
2023-05-04T10:54:26.560Z,1015.65
2023-05-04T10:55:26.558Z,1015.61
2023-05-04T10:56:26.574Z,1015.64
2023-05-04T10:57:26.658Z,1015.58
2023-05-04T10:58:26.558Z,1015.63
2023-05-04T10:59:26.564Z,1015.55
2023-05-04T11:00:26.658Z,1015.54
2023-05-04T11:01:26.828Z,1015.52
2023-05-04T11:02:26.672Z,1015.49
2023-05-04T11:03:26.675Z,1015.50
2023-05-04T11:04:26.621Z,1015.48
2023-05-04T11:05:26.704Z,1015.48
2023-05-04T11:06:26.599Z,1015.41
2023-05-04T11:07:26.637Z,1015.41
2023-05-04T11:08:26.637Z,1015.40
2023-05-04T11:09:26.643Z,1015.39
2023-05-04T11:10:26.644Z,1015.36
2023-05-04T11:11:26.606Z,1015.31
2023-05-04T11:12:26.609Z,1015.31
2023-05-04T11:13:26.822Z,1015.29
2023-05-04T11:14:27.177Z,1015.28
2023-05-04T11:15:26.601Z,1015.29
2023-05-04T11:16:27.675Z,1015.26
2023-05-04T11:17:28.462Z,1015.26
2023-05-04T11:18:26.867Z,1015.24
2023-05-04T11:19:26.753Z,1015.24
2023-05-04T11:20:26.671Z,1015.24
2023-05-04T11:21:26.609Z,1015.27
2023-05-04T11:22:26.624Z,1015.20
2023-05-04T11:23:26.729Z,1015.22
2023-05-04T11:24:27.351Z,1015.18
2023-05-04T11:25:26.662Z,1015.19
2023-05-04T11:26:26.684Z,1015.20
2023-05-04T11:27:26.652Z,1015.14
2023-05-04T11:28:26.721Z,1015.10
2023-05-04T11:29:26.677Z,1015.09
2023-05-04T11:30:26.667Z,1015.13
2023-05-04T11:31:26.739Z,1015.15
2023-05-04T11:32:26.756Z,1015.17
2023-05-04T11:33:27.155Z,1015.14
2023-05-04T11:34:26.766Z,1015.11
2023-05-04T11:35:26.704Z,1015.13
2023-05-04T11:36:26.680Z,1015.13
2023-05-04T11:37:26.815Z,1015.13
2023-05-04T11:38:26.732Z,1015.11
2023-05-04T11:39:26.743Z,1015.06
2023-05-04T11:40:26.870Z,1015.06
2023-05-04T11:41:26.744Z,1015.00
2023-05-04T11:42:26.694Z,1015.04
2023-05-04T11:43:26.684Z,1015.00
2023-05-04T11:44:26.730Z,1014.99
2023-05-04T11:45:26.691Z,1014.99
2023-05-04T11:46:26.736Z,1014.95
2023-05-04T11:47:26.733Z,1014.92
2023-05-04T11:48:26.713Z,1014.88
2023-05-04T11:49:26.695Z,1014.91
2023-05-04T11:50:26.772Z,1014.85
2023-05-04T11:51:27.015Z,1014.87
2023-05-04T11:52:26.732Z,1014.90
2023-05-04T11:53:27.659Z,1014.87
2023-05-04T11:54:26.715Z,1014.89
2023-05-04T11:55:26.720Z,1014.84
2023-05-04T11:56:26.714Z,1014.84
2023-05-04T11:57:26.704Z,1014.81
2023-05-04T11:58:26.885Z,1014.79
2023-05-04T11:59:26.760Z,1014.78
2023-05-04T12:00:26.727Z,1014.76
2023-05-04T12:01:26.855Z,1014.77
2023-05-04T12:02:26.752Z,1014.75
2023-05-04T12:03:35.440Z,1014.73
2023-05-04T12:04:27.064Z,1014.71
2023-05-04T12:05:26.881Z,1014.70
2023-05-04T12:06:26.835Z,1014.71
2023-05-04T12:07:26.778Z,1014.69
2023-05-04T12:08:26.926Z,1014.70
2023-05-04T12:09:26.766Z,1014.70
2023-05-04T12:10:29.857Z,1014.73
2023-05-04T12:11:27.913Z,1014.68
2023-05-04T12:12:26.787Z,1014.66
2023-05-04T12:13:26.838Z,1014.65
2023-05-04T12:14:26.769Z,1014.63
2023-05-04T12:15:26.977Z,1014.62
2023-05-04T12:16:27.018Z,1014.63
2023-05-04T12:17:27.869Z,1014.56
2023-05-04T12:18:27.847Z,1014.63
2023-05-04T12:19:26.788Z,1014.58
2023-05-04T12:20:26.801Z,1014.55
2023-05-04T12:21:26.887Z,1014.59
2023-05-04T12:22:26.781Z,1014.55
2023-05-04T12:23:27.114Z,1014.56
2023-05-04T12:24:27.070Z,1014.55
2023-05-04T12:25:26.823Z,1014.49
2023-05-04T12:26:26.826Z,1014.47
2023-05-04T12:27:26.832Z,1014.47
2023-05-04T12:28:26.833Z,1014.48
2023-05-04T12:29:26.807Z,1014.43
2023-05-04T12:30:26.943Z,1014.41
2023-05-04T12:31:26.844Z,1014.41
2023-05-04T12:32:26.845Z,1014.48
2023-05-04T12:33:26.797Z,1014.42
2023-05-04T12:34:26.821Z,1014.44
2023-05-04T12:35:27.084Z,1014.38
2023-05-04T12:36:26.840Z,1014.42
2023-05-04T12:37:26.854Z,1014.38
2023-05-04T12:38:26.817Z,1014.36
2023-05-04T12:39:26.881Z,1014.36
2023-05-04T12:40:28.581Z,1014.33
2023-05-04T12:41:26.883Z,1014.36
2023-05-04T12:42:26.855Z,1014.35
2023-05-04T12:43:26.834Z,1014.33
2023-05-04T12:44:26.860Z,1014.29
2023-05-04T12:45:26.849Z,1014.29
2023-05-04T12:46:26.931Z,1014.35
2023-05-04T12:47:26.920Z,1014.26
2023-05-04T12:48:26.890Z,1014.28
2023-05-04T12:49:26.901Z,1014.20
2023-05-04T12:52:59.592Z,1014.20
2023-05-04T12:53:59.426Z,1014.21
2023-05-04T12:54:59.426Z,1014.17
2023-05-04T12:55:59.508Z,1014.16
2023-05-04T12:56:59.487Z,1014.16
2023-05-04T12:57:59.428Z,1014.14
2023-05-04T12:58:59.461Z,1014.16
2023-05-04T12:59:59.431Z,1014.12
2023-05-04T13:00:59.548Z,1014.10
2023-05-04T13:01:59.473Z,1014.10
2023-05-04T13:02:59.595Z,1014.12
2023-05-04T13:03:59.458Z,1014.07
2023-05-04T13:04:59.443Z,1014.04
2023-05-04T13:05:59.462Z,1014.02
2023-05-04T13:06:59.497Z,1013.99
2023-05-04T13:07:59.471Z,1014.00
2023-05-04T13:08:59.545Z,1013.98
2023-05-04T13:09:59.495Z,1013.89
2023-05-04T13:10:59.544Z,1013.91
2023-05-04T13:11:59.503Z,1013.89
2023-05-04T13:12:59.528Z,1013.83
2023-05-04T13:13:59.498Z,1013.85
2023-05-04T13:14:59.535Z,1013.85
2023-05-04T13:15:59.590Z,1013.85
2023-05-04T13:16:59.611Z,1013.81
2023-05-04T13:17:59.550Z,1013.81
2023-05-04T13:18:59.642Z,1013.78
2023-05-04T13:19:59.631Z,1013.76
2023-05-04T13:20:59.587Z,1013.72
2023-05-04T13:21:59.515Z,1013.71
2023-05-04T13:22:59.529Z,1013.71
2023-05-04T13:23:59.591Z,1013.63
2023-05-04T13:24:59.769Z,1013.63
2023-05-04T13:25:59.608Z,1013.61
2023-05-04T13:27:59.610Z,1013.60
2023-05-04T13:28:59.707Z,1013.56
2023-05-04T13:29:59.594Z,1013.59
2023-05-04T13:30:59.618Z,1013.56
2023-05-04T13:31:59.810Z,1013.55
2023-05-04T13:32:59.659Z,1013.56
2023-05-04T13:33:59.668Z,1013.58
2023-05-04T13:34:59.597Z,1013.55
2023-05-04T13:35:59.611Z,1013.58
2023-05-04T13:36:59.638Z,1013.52
2023-05-04T13:37:59.680Z,1013.56
2023-05-04T13:38:59.660Z,1013.55
2023-05-04T13:39:59.704Z,1013.51
2023-05-04T13:40:59.659Z,1013.44
2023-05-04T13:41:59.865Z,1013.49
2023-05-04T13:42:59.686Z,1013.52
2023-05-04T13:43:59.654Z,1013.52
2023-05-04T13:44:59.683Z,1013.51
2023-05-04T13:45:59.719Z,1013.52
2023-05-04T13:47:00.009Z,1013.46
2023-05-04T13:47:59.937Z,1013.45
2023-05-04T13:48:59.725Z,1013.50
2023-05-04T13:49:59.779Z,1013.50
2023-05-04T13:50:59.739Z,1013.50
2023-05-04T13:51:59.702Z,1013.50
2023-05-04T13:52:59.732Z,1013.49
2023-05-04T13:54:01.821Z,1013.45
2023-05-04T13:54:59.724Z,1013.44
2023-05-04T13:55:59.731Z,1013.47
2023-05-04T13:56:59.817Z,1013.49
2023-05-04T13:57:59.738Z,1013.44
2023-05-04T13:58:59.767Z,1013.45
2023-05-04T14:00:06.617Z,1013.47
2023-05-04T14:00:59.837Z,1013.46
2023-05-04T14:01:59.822Z,1013.42
2023-05-04T14:03:00.014Z,1013.36
2023-05-04T14:03:59.783Z,1013.37
2023-05-04T14:04:59.799Z,1013.33
2023-05-04T14:05:59.853Z,1013.30
2023-05-04T14:06:59.814Z,1013.32
2023-05-04T14:07:59.819Z,1013.26
2023-05-04T14:08:59.818Z,1013.20
2023-05-04T14:09:59.843Z,1013.15
2023-05-04T14:10:59.837Z,1013.17
2023-05-04T14:11:59.857Z,1013.09
2023-05-04T14:12:59.866Z,1013.06
2023-05-04T14:13:59.880Z,1013.09
2023-05-04T14:14:59.864Z,1013.04
2023-05-04T14:15:59.886Z,1013.05
2023-05-04T14:16:59.946Z,1012.98
2023-05-04T14:17:59.938Z,1012.96
2023-05-04T14:18:59.909Z,1012.99
2023-05-04T14:19:59.906Z,1012.99
2023-05-04T14:20:59.926Z,1012.98
2023-05-04T14:21:59.917Z,1012.97
2023-05-04T14:22:59.920Z,1012.93
2023-05-04T14:23:59.945Z,1012.93
2023-05-04T14:24:59.941Z,1012.90
2023-05-04T14:25:59.966Z,1012.86
2023-05-04T14:26:59.945Z,1012.87
2023-05-04T14:27:59.978Z,1012.88
2023-05-04T14:28:59.992Z,1012.83
2023-05-04T14:30:00.051Z,1012.78
2023-05-04T14:31:00.002Z,1012.78
2023-05-04T14:32:00.054Z,1012.78
2023-05-04T14:33:00.093Z,1012.77
2023-05-04T14:34:00.013Z,1012.72
2023-05-04T14:35:00.031Z,1012.70
2023-05-04T14:36:00.048Z,1012.70
2023-05-04T14:37:00.069Z,1012.68
2023-05-04T14:38:00.046Z,1012.65
2023-05-04T14:39:00.065Z,1012.64
2023-05-04T14:40:00.100Z,1012.60
2023-05-04T14:41:00.065Z,1012.55
2023-05-04T14:42:00.073Z,1012.56
2023-05-04T14:43:00.117Z,1012.59
2023-05-04T14:44:00.107Z,1012.57
2023-05-04T14:45:00.127Z,1012.55
2023-05-04T14:46:00.210Z,1012.59
2023-05-04T14:47:00.132Z,1012.57
2023-05-04T14:48:00.139Z,1012.51
2023-05-04T14:49:00.152Z,1012.47
2023-05-04T14:50:00.176Z,1012.53
2023-05-04T14:51:00.146Z,1012.46
2023-05-04T14:52:00.159Z,1012.47
2023-05-04T14:53:00.148Z,1012.42
2023-05-04T14:54:00.164Z,1012.42
2023-05-04T14:55:00.198Z,1012.39
2023-05-04T14:56:00.181Z,1012.36
2023-05-04T14:57:00.321Z,1012.37
2023-05-04T14:58:00.192Z,1012.39
2023-05-04T14:59:00.202Z,1012.38
2023-05-04T15:00:00.221Z,1012.33
2023-05-04T15:01:00.293Z,1012.34
2023-05-04T15:02:00.234Z,1012.36
2023-05-04T15:03:00.329Z,1012.32
2023-05-04T15:04:00.345Z,1012.28
2023-05-04T15:05:00.244Z,1012.20
2023-05-04T15:06:00.246Z,1012.21
2023-05-04T15:07:00.266Z,1012.23
2023-05-04T15:08:00.266Z,1012.23
2023-05-04T15:09:00.266Z,1012.19
2023-05-04T15:10:00.269Z,1012.24
2023-05-04T15:11:00.311Z,1012.21
2023-05-04T15:12:00.309Z,1012.21
2023-05-04T15:13:00.349Z,1012.20
2023-05-04T15:14:00.341Z,1012.18
2023-05-04T15:15:00.319Z,1012.14
2023-05-04T15:16:00.365Z,1012.14
2023-05-04T15:17:00.325Z,1012.14
2023-05-04T15:18:00.354Z,1012.13
2023-05-04T15:19:00.337Z,1012.11
2023-05-04T15:20:00.333Z,1012.11
2023-05-04T15:21:00.346Z,1012.15
2023-05-04T15:22:00.337Z,1012.13
2023-05-04T15:23:00.373Z,1012.11
2023-05-04T15:24:00.376Z,1012.10
2023-05-04T15:25:00.358Z,1012.07
2023-05-04T15:26:00.384Z,1012.08
2023-05-04T15:27:00.371Z,1012.07
2023-05-04T15:28:00.388Z,1012.10
2023-05-04T15:29:00.383Z,1012.10
2023-05-04T15:30:00.409Z,1012.06
2023-05-04T15:31:00.416Z,1012.03
2023-05-04T15:32:00.459Z,1012.08
2023-05-04T15:33:00.489Z,1012.04
2023-05-04T15:34:00.401Z,1012.03
2023-05-04T15:35:05.457Z,1012.02
2023-05-04T15:36:00.446Z,1012.04
2023-05-04T15:37:00.418Z,1012.07
2023-05-04T15:38:00.445Z,1012.02
2023-05-04T15:39:00.411Z,1012.03
2023-05-04T15:40:02.484Z,1011.99
2023-05-04T15:41:00.476Z,1012.01
2023-05-04T15:42:00.483Z,1012.00
2023-05-04T15:43:00.439Z,1012.00
2023-05-04T15:44:00.426Z,1012.02
2023-05-04T15:45:00.451Z,1012.02
2023-05-04T15:46:00.470Z,1012.00
2023-05-04T15:47:00.456Z,1012.03
2023-05-04T15:48:00.519Z,1011.99
2023-05-04T15:49:00.506Z,1011.98
2023-05-04T15:50:00.482Z,1011.95
2023-05-04T15:51:00.469Z,1012.00
2023-05-04T15:52:00.480Z,1012.03
2023-05-04T15:53:00.474Z,1011.98
2023-05-04T15:54:00.466Z,1012.00
2023-05-04T15:55:06.513Z,1011.95
2023-05-04T15:56:00.480Z,1011.96
2023-05-04T15:57:00.483Z,1011.95
2023-05-04T15:58:00.477Z,1011.91
2023-05-04T15:59:00.478Z,1011.88
2023-05-04T16:00:00.514Z,1011.88
2023-05-04T16:01:00.518Z,1011.87
2023-05-04T16:12:43.135Z,1011.73
2023-05-04T16:13:43.059Z,1011.76
2023-05-04T16:14:43.088Z,1011.74
2023-05-04T16:15:43.062Z,1011.72
2023-05-04T16:16:43.148Z,1011.75
2023-05-04T16:17:43.064Z,1011.71
2023-05-04T16:18:43.070Z,1011.73
2023-05-04T16:19:43.088Z,1011.71
2023-05-04T16:20:43.061Z,1011.66
2023-05-04T16:21:43.070Z,1011.68
2023-05-04T16:22:43.064Z,1011.72
2023-05-04T16:23:43.212Z,1011.67
2023-05-04T16:24:43.057Z,1011.68
2023-05-04T16:25:43.063Z,1011.66
2023-05-04T16:26:43.066Z,1011.65
2023-05-04T16:27:43.366Z,1011.63
2023-05-04T16:28:43.093Z,1011.65
2023-05-04T16:29:43.076Z,1011.61
2023-05-04T16:30:43.188Z,1011.60
2023-05-04T16:31:43.073Z,1011.57